sensor_id;sensor_type;location;lat;lon;timestamp;temperature;humidity
46932;DHT22;32670;51.464;11.964;2024-02-23T00:00:16;22.80;52.40
46932;DHT22;32670;51.464;11.964;2024-02-23T00:02:43;22.80;52.50
46932;DHT22;32670;51.464;11.964;2024-02-23T00:05:09;22.80;52.50
46932;DHT22;32670;51.464;11.964;2024-02-23T00:07:34;22.90;52.60
46932;DHT22;32670;51.464;11.964;2024-02-23T00:09:59;22.90;52.60
46932;DHT22;32670;51.464;11.964;2024-02-23T00:12:25;22.90;52.60
46932;DHT22;32670;51.464;11.964;2024-02-23T00:14:50;22.90;52.60
46932;DHT22;32670;51.464;11.964;2024-02-23T00:17:16;22.90;52.10
46932;DHT22;32670;51.464;11.964;2024-02-23T00:19:42;22.90;52.20
46932;DHT22;32670;51.464;11.964;2024-02-23T00:22:07;22.90;52.30
46932;DHT22;32670;51.464;11.964;2024-02-23T00:24:33;22.90;52.30
46932;DHT22;32670;51.464;11.964;2024-02-23T00:26:58;22.90;52.40
46932;DHT22;32670;51.464;11.964;2024-02-23T00:29:24;23.00;52.40
46932;DHT22;32670;51.464;11.964;2024-02-23T00:31:49;22.90;52.40
46932;DHT22;32670;51.464;11.964;2024-02-23T00:34:15;22.90;52.40
46932;DHT22;32670;51.464;11.964;2024-02-23T00:36:42;23.00;52.50
46932;DHT22;32670;51.464;11.964;2024-02-23T00:39:08;23.00;52.50
46932;DHT22;32670;51.464;11.964;2024-02-23T00:41:34;23.00;52.50
46932;DHT22;32670;51.464;11.964;2024-02-23T00:44:00;22.90;52.60
46932;DHT22;32670;51.464;11.964;2024-02-23T00:46:25;23.00;52.60
46932;DHT22;32670;51.464;11.964;2024-02-23T00:48:51;23.00;52.80
46932;DHT22;32670;51.464;11.964;2024-02-23T00:51:16;23.00;52.70
46932;DHT22;32670;51.464;11.964;2024-02-23T00:53:42;23.00;52.70
46932;DHT22;32670;51.464;11.964;2024-02-23T00:56:08;23.00;52.80
46932;DHT22;32670;51.464;11.964;2024-02-23T00:58:33;23.10;52.80
46932;DHT22;32670;51.464;11.964;2024-02-23T01:00:59;23.00;53.40
46932;DHT22;32670;51.464;11.964;2024-02-23T01:03:25;23.10;53.00
46932;DHT22;32670;51.464;11.964;2024-02-23T01:05:50;23.10;52.80
46932;DHT22;32670;51.464;11.964;2024-02-23T01:08:16;23.10;52.90
46932;DHT22;32670;51.464;11.964;2024-02-23T01:10:41;23.10;52.90
46932;DHT22;32670;51.464;11.964;2024-02-23T01:13:07;23.10;52.90
46932;DHT22;32670;51.464;11.964;2024-02-23T01:15:32;23.10;52.90
46932;DHT22;32670;51.464;11.964;2024-02-23T01:17:58;23.10;52.90
46932;DHT22;32670;51.464;11.964;2024-02-23T01:20:23;23.10;52.70
46932;DHT22;32670;51.464;11.964;2024-02-23T01:22:49;23.10;52.80
46932;DHT22;32670;51.464;11.964;2024-02-23T01:25:14;23.10;52.80
46932;DHT22;32670;51.464;11.964;2024-02-23T01:27:41;23.10;52.80
46932;DHT22;32670;51.464;11.964;2024-02-23T01:30:07;23.10;52.80
46932;DHT22;32670;51.464;11.964;2024-02-23T01:32:33;23.10;52.90
46932;DHT22;32670;51.464;11.964;2024-02-23T01:34:58;23.10;52.80
46932;DHT22;32670;51.464;11.964;2024-02-23T01:37:24;23.10;52.90
46932;DHT22;32670;51.464;11.964;2024-02-23T01:39:49;23.10;52.90
46932;DHT22;32670;51.464;11.964;2024-02-23T01:42:14;23.10;53.10
46932;DHT22;32670;51.464;11.964;2024-02-23T01:44:40;23.10;53.20
46932;DHT22;32670;51.464;11.964;2024-02-23T01:47:05;23.10;53.20
46932;DHT22;32670;51.464;11.964;2024-02-23T01:49:32;23.10;53.10
46932;DHT22;32670;51.464;11.964;2024-02-23T01:52:00;23.10;53.30
46932;DHT22;32670;51.464;11.964;2024-02-23T01:54:26;23.10;53.10
46932;DHT22;32670;51.464;11.964;2024-02-23T01:56:53;23.10;53.10
46932;DHT22;32670;51.464;11.964;2024-02-23T01:59:19;23.10;53.20
46932;DHT22;32670;51.464;11.964;2024-02-23T02:01:45;23.10;53.20
46932;DHT22;32670;51.464;11.964;2024-02-23T02:04:11;23.20;53.30
46932;DHT22;32670;51.464;11.964;2024-02-23T02:06:37;23.20;53.30
46932;DHT22;32670;51.464;11.964;2024-02-23T02:09:02;23.20;53.30
46932;DHT22;32670;51.464;11.964;2024-02-23T02:11:28;23.20;53.40
46932;DHT22;32670;51.464;11.964;2024-02-23T02:13:53;23.20;53.40
46932;DHT22;32670;51.464;11.964;2024-02-23T02:16:19;23.10;53.40
46932;DHT22;32670;51.464;11.964;2024-02-23T02:18:44;23.20;53.40
46932;DHT22;32670;51.464;11.964;2024-02-23T02:21:11;23.10;53.30
46932;DHT22;32670;51.464;11.964;2024-02-23T02:23:37;23.20;53.50
46932;DHT22;32670;51.464;11.964;2024-02-23T02:26:03;23.20;53.50
46932;DHT22;32670;51.464;11.964;2024-02-23T02:28:28;23.10;53.50
46932;DHT22;32670;51.464;11.964;2024-02-23T02:30:54;23.20;53.60
46932;DHT22;32670;51.464;11.964;2024-02-23T02:33:20;23.20;53.70
46932;DHT22;32670;51.464;11.964;2024-02-23T02:35:45;23.20;53.50
46932;DHT22;32670;51.464;11.964;2024-02-23T02:38:11;23.20;53.60
46932;DHT22;32670;51.464;11.964;2024-02-23T02:40:37;23.20;53.60
46932;DHT22;32670;51.464;11.964;2024-02-23T02:43:02;23.20;53.70
46932;DHT22;32670;51.464;11.964;2024-02-23T02:45:28;23.20;53.80
46932;DHT22;32670;51.464;11.964;2024-02-23T02:47:53;23.20;53.80
46932;DHT22;32670;51.464;11.964;2024-02-23T02:50:19;23.20;53.60
46932;DHT22;32670;51.464;11.964;2024-02-23T02:52:44;23.20;53.70
46932;DHT22;32670;51.464;11.964;2024-02-23T02:55:10;23.20;53.80
46932;DHT22;32670;51.464;11.964;2024-02-23T02:57:35;23.20;53.70
46932;DHT22;32670;51.464;11.964;2024-02-23T03:00:02;23.20;53.70
46932;DHT22;32670;51.464;11.964;2024-02-23T03:02:30;23.20;53.70
46932;DHT22;32670;51.464;11.964;2024-02-23T03:04:56;23.20;53.70
46932;DHT22;32670;51.464;11.964;2024-02-23T03:07:21;23.20;53.70
46932;DHT22;32670;51.464;11.964;2024-02-23T03:09:47;23.20;54.30
46932;DHT22;32670;51.464;11.964;2024-02-23T03:12:12;23.20;53.70
46932;DHT22;32670;51.464;11.964;2024-02-23T03:14:38;23.20;53.80
46932;DHT22;32670;51.464;11.964;2024-02-23T03:17:06;23.20;53.70
46932;DHT22;32670;51.464;11.964;2024-02-23T03:19:32;23.20;53.70
46932;DHT22;32670;51.464;11.964;2024-02-23T03:21:58;23.20;53.70
46932;DHT22;32670;51.464;11.964;2024-02-23T03:24:23;23.20;53.70
46932;DHT22;32670;51.464;11.964;2024-02-23T03:26:49;23.20;53.80
46932;DHT22;32670;51.464;11.964;2024-02-23T03:29:14;23.20;53.70
46932;DHT22;32670;51.464;11.964;2024-02-23T03:31:40;23.20;52.90
46932;DHT22;32670;51.464;11.964;2024-02-23T03:34:05;23.20;53.40
46932;DHT22;32670;51.464;11.964;2024-02-23T03:36:49;23.20;53.60
46932;DHT22;32670;51.464;11.964;2024-02-23T03:39:15;23.20;53.70
46932;DHT22;32670;51.464;11.964;2024-02-23T03:41:40;23.20;53.90
46932;DHT22;32670;51.464;11.964;2024-02-23T03:44:06;23.20;53.20
46932;DHT22;32670;51.464;11.964;2024-02-23T03:46:31;23.20;52.70
46932;DHT22;32670;51.464;11.964;2024-02-23T03:49:09;23.20;52.60
46932;DHT22;32670;51.464;11.964;2024-02-23T03:51:35;23.20;53.10
46932;DHT22;32670;51.464;11.964;2024-02-23T03:54:04;23.20;53.30
46932;DHT22;32670;51.464;11.964;2024-02-23T03:56:30;23.20;53.20
46932;DHT22;32670;51.464;11.964;2024-02-23T03:58:55;23.30;53.30
46932;DHT22;32670;51.464;11.964;2024-02-23T04:01:21;23.30;53.50
46932;DHT22;32670;51.464;11.964;2024-02-23T04:03:46;23.20;53.60
46932;DHT22;32670;51.464;11.964;2024-02-23T04:06:11;23.30;53.70
46932;DHT22;32670;51.464;11.964;2024-02-23T04:08:37;23.30;53.60
46932;DHT22;32670;51.464;11.964;2024-02-23T04:11:03;23.30;53.70
46932;DHT22;32670;51.464;11.964;2024-02-23T04:13:28;23.30;53.70
46932;DHT22;32670;51.464;11.964;2024-02-23T04:15:54;23.30;53.70
46932;DHT22;32670;51.464;11.964;2024-02-23T04:18:19;23.30;53.70
46932;DHT22;32670;51.464;11.964;2024-02-23T04:20:45;23.30;53.80
46932;DHT22;32670;51.464;11.964;2024-02-23T04:23:10;23.30;54.40
46932;DHT22;32670;51.464;11.964;2024-02-23T04:25:35;23.30;53.80
46932;DHT22;32670;51.464;11.964;2024-02-23T04:28:01;23.30;53.80
46932;DHT22;32670;51.464;11.964;2024-02-23T04:30:26;23.30;53.80
46932;DHT22;32670;51.464;11.964;2024-02-23T04:32:52;23.30;53.90
46932;DHT22;32670;51.464;11.964;2024-02-23T04:35:17;23.30;53.90
46932;DHT22;32670;51.464;11.964;2024-02-23T04:37:46;23.30;54.10
46932;DHT22;32670;51.464;11.964;2024-02-23T04:40:11;23.30;54.00
46932;DHT22;32670;51.464;11.964;2024-02-23T04:42:37;23.30;54.10
46932;DHT22;32670;51.464;11.964;2024-02-23T04:45:04;23.30;54.10
46932;DHT22;32670;51.464;11.964;2024-02-23T04:47:29;23.30;54.10
46932;DHT22;32670;51.464;11.964;2024-02-23T04:49:55;23.30;54.80
46932;DHT22;32670;51.464;11.964;2024-02-23T04:52:20;23.30;54.30
46932;DHT22;32670;51.464;11.964;2024-02-23T04:54:46;23.30;54.30
46932;DHT22;32670;51.464;11.964;2024-02-23T04:57:26;23.30;54.30
46932;DHT22;32670;51.464;11.964;2024-02-23T04:59:52;23.30;54.20
46932;DHT22;32670;51.464;11.964;2024-02-23T05:02:17;23.30;54.40
46932;DHT22;32670;51.464;11.964;2024-02-23T05:04:43;23.30;54.20
46932;DHT22;32670;51.464;11.964;2024-02-23T05:07:08;23.30;54.20
46932;DHT22;32670;51.464;11.964;2024-02-23T05:09:34;23.30;54.20
46932;DHT22;32670;51.464;11.964;2024-02-23T05:12:00;23.30;54.20
46932;DHT22;32670;51.464;11.964;2024-02-23T05:14:26;23.30;54.20
46932;DHT22;32670;51.464;11.964;2024-02-23T05:16:52;23.30;54.30
46932;DHT22;32670;51.464;11.964;2024-02-23T05:19:17;23.30;53.60
46932;DHT22;32670;51.464;11.964;2024-02-23T05:21:43;23.30;53.90
46932;DHT22;32670;51.464;11.964;2024-02-23T05:24:08;23.30;53.90
46932;DHT22;32670;51.464;11.964;2024-02-23T05:26:33;23.30;54.00
46932;DHT22;32670;51.464;11.964;2024-02-23T05:28:59;23.30;54.10
46932;DHT22;32670;51.464;11.964;2024-02-23T05:31:53;23.30;54.10
46932;DHT22;32670;51.464;11.964;2024-02-23T05:34:19;23.30;54.90
46932;DHT22;32670;51.464;11.964;2024-02-23T05:36:45;23.30;54.30
46932;DHT22;32670;51.464;11.964;2024-02-23T05:39:16;23.30;54.30
46932;DHT22;32670;51.464;11.964;2024-02-23T05:41:43;23.30;54.30
46932;DHT22;32670;51.464;11.964;2024-02-23T05:44:08;23.30;54.30
46932;DHT22;32670;51.464;11.964;2024-02-23T05:46:35;23.40;54.40
46932;DHT22;32670;51.464;11.964;2024-02-23T05:49:01;23.30;54.50
46932;DHT22;32670;51.464;11.964;2024-02-23T05:51:28;23.30;54.40
46932;DHT22;32670;51.464;11.964;2024-02-23T05:53:54;23.30;54.60
46932;DHT22;32670;51.464;11.964;2024-02-23T05:56:20;23.30;54.50
46932;DHT22;32670;51.464;11.964;2024-02-23T05:58:45;23.40;54.60
46932;DHT22;32670;51.464;11.964;2024-02-23T06:01:10;23.30;55.00
46932;DHT22;32670;51.464;11.964;2024-02-23T06:03:36;23.30;54.50
46932;DHT22;32670;51.464;11.964;2024-02-23T06:06:01;23.40;54.60
46932;DHT22;32670;51.464;11.964;2024-02-23T06:08:27;23.30;54.60
46932;DHT22;32670;51.464;11.964;2024-02-23T06:10:52;23.30;54.60
46932;DHT22;32670;51.464;11.964;2024-02-23T06:13:18;23.30;54.60
46932;DHT22;32670;51.464;11.964;2024-02-23T06:15:43;23.40;54.70
46932;DHT22;32670;51.464;11.964;2024-02-23T06:18:09;23.40;54.70
46932;DHT22;32670;51.464;11.964;2024-02-23T06:20:34;23.30;54.80
46932;DHT22;32670;51.464;11.964;2024-02-23T06:23:00;23.30;54.90
46932;DHT22;32670;51.464;11.964;2024-02-23T06:25:25;23.40;55.00
46932;DHT22;32670;51.464;11.964;2024-02-23T06:27:50;23.40;55.00
46932;DHT22;32670;51.464;11.964;2024-02-23T06:30:16;23.40;54.90
46932;DHT22;32670;51.464;11.964;2024-02-23T06:32:41;23.40;54.80
46932;DHT22;32670;51.464;11.964;2024-02-23T06:35:08;23.40;54.90
46932;DHT22;32670;51.464;11.964;2024-02-23T06:37:34;23.40;54.80
46932;DHT22;32670;51.464;11.964;2024-02-23T06:39:59;23.40;54.80
46932;DHT22;32670;51.464;11.964;2024-02-23T06:42:25;23.40;54.90
46932;DHT22;32670;51.464;11.964;2024-02-23T06:44:50;23.40;54.80
46932;DHT22;32670;51.464;11.964;2024-02-23T06:47:16;23.40;54.80
46932;DHT22;32670;51.464;11.964;2024-02-23T06:49:42;23.40;54.90
46932;DHT22;32670;51.464;11.964;2024-02-23T06:52:08;23.40;54.90
46932;DHT22;32670;51.464;11.964;2024-02-23T06:54:34;23.40;54.90
46932;DHT22;32670;51.464;11.964;2024-02-23T06:56:59;23.40;55.20
46932;DHT22;32670;51.464;11.964;2024-02-23T06:59:25;23.40;54.90
46932;DHT22;32670;51.464;11.964;2024-02-23T07:01:51;23.40;54.70
46932;DHT22;32670;51.464;11.964;2024-02-23T07:04:17;23.40;54.20
46932;DHT22;32670;51.464;11.964;2024-02-23T07:06:43;23.40;54.10
46932;DHT22;32670;51.464;11.964;2024-02-23T07:09:08;23.20;44.70
46932;DHT22;32670;51.464;11.964;2024-02-23T07:11:34;22.80;40.40
46932;DHT22;32670;51.464;11.964;2024-02-23T07:14:00;22.40;38.60
46932;DHT22;32670;51.464;11.964;2024-02-23T07:16:25;22.00;37.90
46932;DHT22;32670;51.464;11.964;2024-02-23T07:18:50;21.80;37.90
46932;DHT22;32670;51.464;11.964;2024-02-23T07:21:19;21.60;36.90
46932;DHT22;32670;51.464;11.964;2024-02-23T07:23:45;21.40;36.40
46932;DHT22;32670;51.464;11.964;2024-02-23T07:26:11;21.30;35.90
46932;DHT22;32670;51.464;11.964;2024-02-23T07:28:36;21.10;35.70
46932;DHT22;32670;51.464;11.964;2024-02-23T07:31:02;21.00;35.50
46932;DHT22;32670;51.464;11.964;2024-02-23T07:33:28;20.90;35.00
46932;DHT22;32670;51.464;11.964;2024-02-23T07:35:53;20.90;35.00
46932;DHT22;32670;51.464;11.964;2024-02-23T07:38:18;20.70;34.90
46932;DHT22;32670;51.464;11.964;2024-02-23T07:40:44;20.70;35.30
46932;DHT22;32670;51.464;11.964;2024-02-23T07:43:10;20.60;35.00
46932;DHT22;32670;51.464;11.964;2024-02-23T07:45:39;20.60;35.00
46932;DHT22;32670;51.464;11.964;2024-02-23T07:48:04;20.50;34.70
46932;DHT22;32670;51.464;11.964;2024-02-23T07:50:30;20.40;34.90
46932;DHT22;32670;51.464;11.964;2024-02-23T07:52:55;20.30;35.10
46932;DHT22;32670;51.464;11.964;2024-02-23T07:55:21;20.20;35.00
46932;DHT22;32670;51.464;11.964;2024-02-23T07:57:47;20.20;34.90
46932;DHT22;32670;51.464;11.964;2024-02-23T08:00:13;20.30;36.80
46932;DHT22;32670;51.464;11.964;2024-02-23T08:02:39;20.50;37.80
46932;DHT22;32670;51.464;11.964;2024-02-23T08:05:05;20.70;38.00
46932;DHT22;32670;51.464;11.964;2024-02-23T08:07:31;20.90;38.50
46932;DHT22;32670;51.464;11.964;2024-02-23T08:09:57;21.00;38.40
46932;DHT22;32670;51.464;11.964;2024-02-23T08:12:22;21.10;38.50
46932;DHT22;32670;51.464;11.964;2024-02-23T08:14:48;21.30;38.50
46932;DHT22;32670;51.464;11.964;2024-02-23T08:17:15;21.30;38.60
46932;DHT22;32670;51.464;11.964;2024-02-23T08:19:41;21.30;38.70
46932;DHT22;32670;51.464;11.964;2024-02-23T08:22:07;21.40;38.70
46932;DHT22;32670;51.464;11.964;2024-02-23T08:24:32;21.40;38.90
46932;DHT22;32670;51.464;11.964;2024-02-23T08:26:58;21.50;38.90
46932;DHT22;32670;51.464;11.964;2024-02-23T08:29:23;21.50;38.90
46932;DHT22;32670;51.464;11.964;2024-02-23T08:31:49;21.50;38.90
46932;DHT22;32670;51.464;11.964;2024-02-23T08:34:14;21.50;39.00
46932;DHT22;32670;51.464;11.964;2024-02-23T08:36:40;21.50;39.00
46932;DHT22;32670;51.464;11.964;2024-02-23T08:39:05;21.60;39.10
46932;DHT22;32670;51.464;11.964;2024-02-23T08:41:31;21.60;39.20
46932;DHT22;32670;51.464;11.964;2024-02-23T08:43:56;21.60;39.30
46932;DHT22;32670;51.464;11.964;2024-02-23T08:46:22;21.60;39.80
46932;DHT22;32670;51.464;11.964;2024-02-23T08:48:48;21.60;40.10
46932;DHT22;32670;51.464;11.964;2024-02-23T08:51:13;21.60;39.90
46932;DHT22;32670;51.464;11.964;2024-02-23T08:53:39;21.60;40.20
46932;DHT22;32670;51.464;11.964;2024-02-23T08:56:06;21.60;39.80
46932;DHT22;32670;51.464;11.964;2024-02-23T08:58:32;21.60;39.70
46932;DHT22;32670;51.464;11.964;2024-02-23T09:00:57;21.60;40.10
46932;DHT22;32670;51.464;11.964;2024-02-23T09:03:23;21.70;40.10
46932;DHT22;32670;51.464;11.964;2024-02-23T09:05:49;21.70;39.90
46932;DHT22;32670;51.464;11.964;2024-02-23T09:08:14;21.70;39.80
46932;DHT22;32670;51.464;11.964;2024-02-23T09:10:40;21.70;40.40
46932;DHT22;32670;51.464;11.964;2024-02-23T09:13:05;21.60;39.80
46932;DHT22;32670;51.464;11.964;2024-02-23T09:15:31;21.70;40.50
46932;DHT22;32670;51.464;11.964;2024-02-23T09:17:56;21.70;40.30
46932;DHT22;32670;51.464;11.964;2024-02-23T09:20:22;21.70;40.90
46932;DHT22;32670;51.464;11.964;2024-02-23T09:22:48;21.70;40.80
46932;DHT22;32670;51.464;11.964;2024-02-23T09:25:14;21.70;40.50
46932;DHT22;32670;51.464;11.964;2024-02-23T09:27:39;21.70;40.60
46932;DHT22;32670;51.464;11.964;2024-02-23T09:30:10;21.70;40.80
46932;DHT22;32670;51.464;11.964;2024-02-23T09:32:36;21.70;40.60
46932;DHT22;32670;51.464;11.964;2024-02-23T09:35:02;21.70;41.10
46932;DHT22;32670;51.464;11.964;2024-02-23T09:37:28;21.70;41.50
46932;DHT22;32670;51.464;11.964;2024-02-23T09:39:54;21.70;40.70
46932;DHT22;32670;51.464;11.964;2024-02-23T09:42:22;21.70;41.10
46932;DHT22;32670;51.464;11.964;2024-02-23T09:44:57;21.70;41.60
46932;DHT22;32670;51.464;11.964;2024-02-23T09:47:27;21.70;41.30
46932;DHT22;32670;51.464;11.964;2024-02-23T09:49:54;21.70;41.30
46932;DHT22;32670;51.464;11.964;2024-02-23T09:52:20;21.70;39.90
46932;DHT22;32670;51.464;11.964;2024-02-23T09:54:46;21.70;40.60
46932;DHT22;32670;51.464;11.964;2024-02-23T09:57:12;21.70;40.70
46932;DHT22;32670;51.464;11.964;2024-02-23T09:59:38;21.70;40.90
46932;DHT22;32670;51.464;11.964;2024-02-23T10:02:15;21.70;40.80
46932;DHT22;32670;51.464;11.964;2024-02-23T10:04:42;21.70;40.30
46932;DHT22;32670;51.464;11.964;2024-02-23T10:07:14;21.80;40.40
46932;DHT22;32670;51.464;11.964;2024-02-23T10:09:41;21.70;40.30
46932;DHT22;32670;51.464;11.964;2024-02-23T10:12:07;21.70;40.10
46932;DHT22;32670;51.464;11.964;2024-02-23T10:14:33;21.70;40.00
46932;DHT22;32670;51.464;11.964;2024-02-23T10:16:58;21.70;40.10
46932;DHT22;32670;51.464;11.964;2024-02-23T10:19:25;21.70;40.20
46932;DHT22;32670;51.464;11.964;2024-02-23T10:21:54;21.70;40.20
46932;DHT22;32670;51.464;11.964;2024-02-23T10:24:20;21.80;40.30
46932;DHT22;32670;51.464;11.964;2024-02-23T10:26:46;21.70;40.40
46932;DHT22;32670;51.464;11.964;2024-02-23T10:29:12;21.70;39.90
46932;DHT22;32670;51.464;11.964;2024-02-23T10:31:37;21.70;40.40
46932;DHT22;32670;51.464;11.964;2024-02-23T10:34:08;21.70;40.00
46932;DHT22;32670;51.464;11.964;2024-02-23T10:36:36;21.70;40.50
46932;DHT22;32670;51.464;11.964;2024-02-23T10:39:04;21.70;40.20
46932;DHT22;32670;51.464;11.964;2024-02-23T10:41:34;21.70;40.10
46932;DHT22;32670;51.464;11.964;2024-02-23T10:44:01;21.70;40.20
46932;DHT22;32670;51.464;11.964;2024-02-23T10:46:30;21.70;40.00
46932;DHT22;32670;51.464;11.964;2024-02-23T10:48:58;21.70;40.20
46932;DHT22;32670;51.464;11.964;2024-02-23T10:51:25;21.70;40.20
46932;DHT22;32670;51.464;11.964;2024-02-23T10:53:52;21.70;39.50
46932;DHT22;32670;51.464;11.964;2024-02-23T10:56:18;21.70;39.30
46932;DHT22;32670;51.464;11.964;2024-02-23T10:58:43;21.70;39.20
46932;DHT22;32670;51.464;11.964;2024-02-23T11:01:09;21.70;39.80
46932;DHT22;32670;51.464;11.964;2024-02-23T11:03:38;21.70;40.40
46932;DHT22;32670;51.464;11.964;2024-02-23T11:06:07;21.70;39.40
46932;DHT22;32670;51.464;11.964;2024-02-23T11:08:33;21.70;39.10
46932;DHT22;32670;51.464;11.964;2024-02-23T11:11:07;21.70;39.50
46932;DHT22;32670;51.464;11.964;2024-02-23T11:13:37;21.70;39.20
46932;DHT22;32670;51.464;11.964;2024-02-23T11:16:07;21.70;39.60
46932;DHT22;32670;51.464;11.964;2024-02-23T11:18:39;21.70;39.60
46932;DHT22;32670;51.464;11.964;2024-02-23T11:21:08;21.70;39.80
46932;DHT22;32670;51.464;11.964;2024-02-23T11:23:45;21.70;39.80
46932;DHT22;32670;51.464;11.964;2024-02-23T11:26:13;21.70;40.00
46932;DHT22;32670;51.464;11.964;2024-02-23T11:28:57;21.70;40.20
46932;DHT22;32670;51.464;11.964;2024-02-23T11:31:24;21.70;39.80
46932;DHT22;32670;51.464;11.964;2024-02-23T11:33:51;21.70;39.60
46932;DHT22;32670;51.464;11.964;2024-02-23T11:36:31;21.70;40.10
46932;DHT22;32670;51.464;11.964;2024-02-23T11:38:58;21.70;39.70
46932;DHT22;32670;51.464;11.964;2024-02-23T11:41:25;21.70;40.30
46932;DHT22;32670;51.464;11.964;2024-02-23T11:43:52;21.70;39.80
46932;DHT22;32670;51.464;11.964;2024-02-23T11:46:18;21.70;40.10
46932;DHT22;32670;51.464;11.964;2024-02-23T11:48:44;21.70;40.40
46932;DHT22;32670;51.464;11.964;2024-02-23T11:51:15;21.70;40.40
46932;DHT22;32670;51.464;11.964;2024-02-23T11:53:40;21.70;40.20
46932;DHT22;32670;51.464;11.964;2024-02-23T11:56:06;21.70;39.80
46932;DHT22;32670;51.464;11.964;2024-02-23T11:58:32;21.70;39.70
46932;DHT22;32670;51.464;11.964;2024-02-23T12:01:07;21.70;40.20
46932;DHT22;32670;51.464;11.964;2024-02-23T12:03:33;21.70;39.80
46932;DHT22;32670;51.464;11.964;2024-02-23T12:06:00;21.70;40.00
46932;DHT22;32670;51.464;11.964;2024-02-23T12:08:26;21.70;40.00
46932;DHT22;32670;51.464;11.964;2024-02-23T12:10:56;21.80;40.10
46932;DHT22;32670;51.464;11.964;2024-02-23T12:13:22;21.80;40.40
46932;DHT22;32670;51.464;11.964;2024-02-23T12:15:48;21.70;40.10
46932;DHT22;32670;51.464;11.964;2024-02-23T12:18:18;21.80;40.50
46932;DHT22;32670;51.464;11.964;2024-02-23T12:20:47;21.80;40.40
46932;DHT22;32670;51.464;11.964;2024-02-23T12:23:12;21.80;40.40
46932;DHT22;32670;51.464;11.964;2024-02-23T12:25:38;21.80;40.90
46932;DHT22;32670;51.464;11.964;2024-02-23T12:28:04;21.80;40.50
46932;DHT22;32670;51.464;11.964;2024-02-23T12:30:30;21.80;40.50
46932;DHT22;32670;51.464;11.964;2024-02-23T12:33:09;21.80;40.30
46932;DHT22;32670;51.464;11.964;2024-02-23T12:35:35;21.80;40.40
46932;DHT22;32670;51.464;11.964;2024-02-23T12:38:01;21.80;40.20
46932;DHT22;32670;51.464;11.964;2024-02-23T12:40:27;21.80;40.40
46932;DHT22;32670;51.464;11.964;2024-02-23T12:42:52;21.80;40.70
46932;DHT22;32670;51.464;11.964;2024-02-23T12:45:18;21.70;40.10
46932;DHT22;32670;51.464;11.964;2024-02-23T12:47:43;21.70;40.20
46932;DHT22;32670;51.464;11.964;2024-02-23T12:50:09;21.70;40.60
46932;DHT22;32670;51.464;11.964;2024-02-23T12:52:35;21.80;40.50
46932;DHT22;32670;51.464;11.964;2024-02-23T12:55:00;21.80;40.40
46932;DHT22;32670;51.464;11.964;2024-02-23T12:57:26;21.80;41.00
46932;DHT22;32670;51.464;11.964;2024-02-23T12:59:51;21.80;40.90
46932;DHT22;32670;51.464;11.964;2024-02-23T13:02:17;21.80;40.90
46932;DHT22;32670;51.464;11.964;2024-02-23T13:04:43;21.80;40.80
46932;DHT22;32670;51.464;11.964;2024-02-23T13:07:14;21.80;40.90
46932;DHT22;32670;51.464;11.964;2024-02-23T13:09:40;21.80;40.80
46932;DHT22;32670;51.464;11.964;2024-02-23T13:12:06;21.80;40.90
46932;DHT22;32670;51.464;11.964;2024-02-23T13:14:32;21.80;41.10
46932;DHT22;32670;51.464;11.964;2024-02-23T13:16:57;21.90;41.10
46932;DHT22;32670;51.464;11.964;2024-02-23T13:19:23;21.90;41.20
46932;DHT22;32670;51.464;11.964;2024-02-23T13:21:48;21.90;41.30
46932;DHT22;32670;51.464;11.964;2024-02-23T13:24:15;21.90;41.30
46932;DHT22;32670;51.464;11.964;2024-02-23T13:26:41;21.90;41.40
46932;DHT22;32670;51.464;11.964;2024-02-23T13:29:07;21.90;41.40
46932;DHT22;32670;51.464;11.964;2024-02-23T13:31:32;21.90;41.40
46932;DHT22;32670;51.464;11.964;2024-02-23T13:33:58;21.90;41.50
46932;DHT22;32670;51.464;11.964;2024-02-23T13:36:23;21.90;41.50
46932;DHT22;32670;51.464;11.964;2024-02-23T13:38:49;21.90;41.60
46932;DHT22;32670;51.464;11.964;2024-02-23T13:41:16;21.90;41.60
46932;DHT22;32670;51.464;11.964;2024-02-23T13:43:42;21.90;41.60
46932;DHT22;32670;51.464;11.964;2024-02-23T13:46:07;21.90;41.60
46932;DHT22;32670;51.464;11.964;2024-02-23T13:48:32;21.90;41.70
46932;DHT22;32670;51.464;11.964;2024-02-23T13:50:58;21.90;41.70
46932;DHT22;32670;51.464;11.964;2024-02-23T13:53:28;21.90;41.90
46932;DHT22;32670;51.464;11.964;2024-02-23T13:55:54;21.90;42.20
46932;DHT22;32670;51.464;11.964;2024-02-23T13:58:19;22.00;42.30
46932;DHT22;32670;51.464;11.964;2024-02-23T14:00:45;22.00;42.30
46932;DHT22;32670;51.464;11.964;2024-02-23T14:03:16;22.00;42.20
46932;DHT22;32670;51.464;11.964;2024-02-23T14:05:42;22.00;42.20
46932;DHT22;32670;51.464;11.964;2024-02-23T14:08:10;22.00;42.20
46932;DHT22;32670;51.464;11.964;2024-02-23T14:10:35;22.00;42.20
46932;DHT22;32670;51.464;11.964;2024-02-23T14:13:01;22.00;42.20
46932;DHT22;32670;51.464;11.964;2024-02-23T14:15:26;22.00;42.20
46932;DHT22;32670;51.464;11.964;2024-02-23T14:17:52;22.00;42.20
46932;DHT22;32670;51.464;11.964;2024-02-23T14:20:18;22.00;42.20
46932;DHT22;32670;51.464;11.964;2024-02-23T14:22:43;22.00;42.20
46932;DHT22;32670;51.464;11.964;2024-02-23T14:25:09;22.00;42.20
46932;DHT22;32670;51.464;11.964;2024-02-23T14:27:35;22.00;42.30
46932;DHT22;32670;51.464;11.964;2024-02-23T14:30:00;22.00;42.20
46932;DHT22;32670;51.464;11.964;2024-02-23T14:32:26;22.00;42.30
46932;DHT22;32670;51.464;11.964;2024-02-23T14:34:51;22.00;42.30
46932;DHT22;32670;51.464;11.964;2024-02-23T14:37:17;22.00;42.30
46932;DHT22;32670;51.464;11.964;2024-02-23T14:39:42;22.00;42.60
46932;DHT22;32670;51.464;11.964;2024-02-23T14:42:08;22.00;42.40
46932;DHT22;32670;51.464;11.964;2024-02-23T14:44:35;22.00;42.40
46932;DHT22;32670;51.464;11.964;2024-02-23T14:47:01;22.00;42.40
46932;DHT22;32670;51.464;11.964;2024-02-23T14:49:27;22.00;42.40
46932;DHT22;32670;51.464;11.964;2024-02-23T14:51:52;22.00;42.40
46932;DHT22;32670;51.464;11.964;2024-02-23T14:54:18;22.00;42.40
46932;DHT22;32670;51.464;11.964;2024-02-23T14:56:43;22.00;42.40
46932;DHT22;32670;51.464;11.964;2024-02-23T14:59:09;22.00;42.40
46932;DHT22;32670;51.464;11.964;2024-02-23T15:01:38;22.00;42.40
46932;DHT22;32670;51.464;11.964;2024-02-23T15:04:04;22.00;42.50
46932;DHT22;32670;51.464;11.964;2024-02-23T15:06:30;22.00;42.40
46932;DHT22;32670;51.464;11.964;2024-02-23T15:08:56;22.00;42.50